createdAt,value
2023-01-05T00:01:38.835Z,0.20
2023-01-05T00:04:07.620Z,0.30
2023-01-05T00:06:39.843Z,0.57
2023-01-05T00:09:08.312Z,0.10
2023-01-05T00:11:54.336Z,0.28
2023-01-05T00:14:41.912Z,0.13
2023-01-05T00:17:30.151Z,0.30
2023-01-05T00:20:16.146Z,0.40
2023-01-05T00:22:48.787Z,0.10
2023-01-05T00:27:50.686Z,0.10
2023-01-05T00:30:21.171Z,0.25
2023-01-05T00:32:49.873Z,0.10
2023-01-05T00:35:18.472Z,0.43
2023-01-05T00:37:48.422Z,0.20
2023-01-05T00:40:18.774Z,0.10
2023-01-05T00:42:47.829Z,0.10
2023-01-05T00:45:17.940Z,0.17
2023-01-05T00:47:46.322Z,0.10
2023-01-05T00:50:16.874Z,0.28
2023-01-05T00:52:45.608Z,0.30
2023-01-05T00:55:16.279Z,0.20
2023-01-05T00:57:45.512Z,0.00
2023-01-05T01:00:17.257Z,0.10
2023-01-05T01:02:45.859Z,0.13
2023-01-05T01:05:14.487Z,0.10
2023-01-05T01:07:42.673Z,0.30
2023-01-05T01:10:12.351Z,0.20
2023-01-05T01:12:44.856Z,0.05
2023-01-05T01:15:15.212Z,0.10
2023-01-05T01:17:43.740Z,0.20
2023-01-05T01:20:12.681Z,0.10
2023-01-05T01:22:41.118Z,0.20
2023-01-05T01:25:10.253Z,0.25
2023-01-05T01:27:38.681Z,0.20
2023-01-05T01:30:10.025Z,0.10
2023-01-05T01:32:38.083Z,0.08
2023-01-05T01:35:07.514Z,0.20
2023-01-05T01:37:36.036Z,0.10
2023-01-05T01:40:04.444Z,0.10
2023-01-05T01:42:32.635Z,0.10
2023-01-05T01:45:02.457Z,0.20
2023-01-05T01:47:41.178Z,0.20
2023-01-05T01:50:15.690Z,0.20
2023-01-05T01:52:45.710Z,0.10
2023-01-05T01:55:14.909Z,0.10
2023-01-05T01:57:43.918Z,0.20
2023-01-05T02:00:15.058Z,0.10
2023-01-05T02:02:44.853Z,0.20
2023-01-05T02:05:14.114Z,0.10
2023-01-05T02:07:46.645Z,0.10
2023-01-05T02:10:16.476Z,0.10
2023-01-05T02:12:59.778Z,0.13
2023-01-05T02:15:39.081Z,0.10
2023-01-05T02:18:21.507Z,0.10
2023-01-05T02:21:17.194Z,0.10
2023-01-05T02:24:36.143Z,0.10
2023-01-05T02:27:37.701Z,0.20
2023-01-05T02:30:31.131Z,0.17
2023-01-05T02:33:05.217Z,0.00
2023-01-05T02:35:39.994Z,0.10
2023-01-05T02:38:15.167Z,0.30
2023-01-05T02:40:49.083Z,0.20
2023-01-05T02:43:20.660Z,0.10
2023-01-05T02:45:49.967Z,0.10
2023-01-05T02:48:23.496Z,0.10
2023-01-05T02:51:01.401Z,0.20
2023-01-05T02:53:35.441Z,0.15
2023-01-05T02:56:08.999Z,0.10
2023-01-05T02:58:41.704Z,0.13
2023-01-05T03:02:06.743Z,0.20
2023-01-05T03:04:43.395Z,0.10
2023-01-05T03:07:17.281Z,0.35
2023-01-05T03:09:47.551Z,0.00
2023-01-05T03:12:39.562Z,0.22
2023-01-05T03:15:18.658Z,0.20
2023-01-05T03:17:51.141Z,0.20
2023-01-05T03:20:25.093Z,0.20
2023-01-05T03:23:12.292Z,0.20
2023-01-05T03:26:01.631Z,0.15
2023-01-05T03:28:54.306Z,0.30
2023-01-05T03:31:47.614Z,0.32
2023-01-05T03:34:40.630Z,0.40
2023-01-05T03:37:18.209Z,0.40
2023-01-05T03:39:48.951Z,0.50
2023-01-05T03:42:17.490Z,0.13
2023-01-05T03:44:47.369Z,0.40
2023-01-05T03:47:16.359Z,0.00
2023-01-05T03:49:44.749Z,0.10
2023-01-05T03:52:14.401Z,0.30
2023-01-05T03:54:42.567Z,0.20
2023-01-05T03:57:10.983Z,0.20
2023-01-05T03:59:39.195Z,0.30
2023-01-05T04:02:07.712Z,0.20
2023-01-05T04:04:35.950Z,0.10
2023-01-05T04:07:04.330Z,0.10
2023-01-05T04:09:34.052Z,0.30
2023-01-05T04:12:02.861Z,0.10
2023-01-05T04:14:31.305Z,0.20
2023-01-05T04:17:00.322Z,0.43
2023-01-05T04:19:28.537Z,0.20
2023-01-05T04:21:57.712Z,0.22
2023-01-05T04:24:26.028Z,0.28
2023-01-05T04:26:55.810Z,0.25
2023-01-05T04:29:24.194Z,0.10
2023-01-05T04:31:52.431Z,0.30
2023-01-05T04:34:23.547Z,0.30
2023-01-05T04:36:51.997Z,0.40
2023-01-05T04:39:20.339Z,0.30
2023-01-05T04:41:50.438Z,0.28
2023-01-05T04:44:20.296Z,0.30
2023-01-05T04:46:48.523Z,0.17
2023-01-05T04:49:16.734Z,0.25
2023-01-05T04:51:45.438Z,0.20
2023-01-05T04:54:13.684Z,0.22
2023-01-05T04:56:41.946Z,0.20
2023-01-05T04:59:10.604Z,0.10
2023-01-05T05:01:40.112Z,0.30
2023-01-05T05:04:08.500Z,0.32
2023-01-05T05:06:36.921Z,0.30
2023-01-05T05:09:05.385Z,0.20
2023-01-05T05:11:33.611Z,0.22
2023-01-05T05:14:01.820Z,0.20
2023-01-05T05:16:30.190Z,0.30
2023-01-05T05:19:00.524Z,0.38
2023-01-05T05:21:28.908Z,0.30
2023-01-05T05:23:57.108Z,0.30
2023-01-05T05:26:25.558Z,0.32
2023-01-05T05:28:53.818Z,0.38
2023-01-05T05:31:22.259Z,0.95
2023-01-05T05:33:51.488Z,0.60
2023-01-05T05:36:21.372Z,0.30
2023-01-05T05:38:49.862Z,0.50
2023-01-05T05:41:18.144Z,0.80
2023-01-05T05:43:46.618Z,0.50
2023-01-05T05:46:15.059Z,0.88
2023-01-05T05:48:43.518Z,0.90
2023-01-05T05:51:11.675Z,1.60
2023-01-05T05:53:41.894Z,1.17
2023-01-05T05:56:10.185Z,1.70
2023-01-05T05:58:39.488Z,0.60
2023-01-05T06:01:07.810Z,0.70
2023-01-05T06:03:36.299Z,0.50
2023-01-05T06:06:05.024Z,0.50
2023-01-05T06:08:33.282Z,0.68
2023-01-05T06:11:03.091Z,0.40
2023-01-05T06:13:31.682Z,0.57
2023-01-05T06:16:00.385Z,0.45
2023-01-05T06:18:29.525Z,0.40
2023-01-05T06:21:01.796Z,0.30
2023-01-05T06:23:30.487Z,0.60
2023-01-05T06:25:58.889Z,0.70
2023-01-05T06:28:28.570Z,0.60
2023-01-05T06:30:56.997Z,0.47
2023-01-05T06:33:25.339Z,0.45
2023-01-05T06:35:54.309Z,0.60
2023-01-05T06:38:22.657Z,0.45
2023-01-05T06:40:51.470Z,0.45
2023-01-05T06:43:22.876Z,0.43
2023-01-05T06:45:54.028Z,0.40
2023-01-05T06:48:25.327Z,0.50
2023-01-05T06:50:53.590Z,0.43
2023-01-05T06:53:22.374Z,0.30
2023-01-05T06:55:50.567Z,0.52
2023-01-05T06:58:18.815Z,0.40
2023-01-05T07:00:47.147Z,0.45
2023-01-05T07:03:17.377Z,0.40
2023-01-05T07:05:46.660Z,0.50
2023-01-05T07:08:14.947Z,0.45
2023-01-05T07:10:43.560Z,0.47
2023-01-05T07:13:12.811Z,0.30
2023-01-05T07:15:42.068Z,0.20
2023-01-05T07:18:14.203Z,0.30
2023-01-05T07:20:44.032Z,0.28
2023-01-05T07:23:18.341Z,0.40
2023-01-05T07:25:46.916Z,0.22
2023-01-05T07:28:15.480Z,0.30
2023-01-05T07:30:43.653Z,0.40
2023-01-05T07:33:12.342Z,0.50
2023-01-05T07:35:44.861Z,0.50
2023-01-05T07:38:13.121Z,0.30
2023-01-05T07:40:41.366Z,0.60
2023-01-05T07:43:09.854Z,0.50
2023-01-05T07:45:38.229Z,0.30
2023-01-05T07:48:07.403Z,0.40
2023-01-05T07:50:35.837Z,0.70
2023-01-05T07:53:05.555Z,0.50
2023-01-05T07:55:33.886Z,0.45
2023-01-05T07:58:02.084Z,0.47
2023-01-05T08:00:30.311Z,0.45
2023-01-05T08:02:58.717Z,0.50
2023-01-05T08:05:30.315Z,0.40
2023-01-05T08:07:58.500Z,0.60
2023-01-05T08:10:30.883Z,0.30
2023-01-05T08:13:26.841Z,0.32
2023-01-05T08:15:56.274Z,0.50
2023-01-05T08:18:24.741Z,0.22
2023-01-05T08:20:53.879Z,0.47
2023-01-05T08:23:25.776Z,0.30
2023-01-05T08:28:28.370Z,0.43
2023-01-05T08:31:06.187Z,0.47
2023-01-05T08:33:34.734Z,0.40
2023-01-05T08:36:02.941Z,0.28
2023-01-05T08:38:30.909Z,0.20
2023-01-05T08:41:01.436Z,0.20
2023-01-05T08:43:29.583Z,0.30
2023-01-05T08:45:57.982Z,0.20
2023-01-05T08:48:26.196Z,0.40
2023-01-05T08:50:54.798Z,0.30
2023-01-05T08:53:22.870Z,0.47
2023-01-05T08:55:50.934Z,0.47
2023-01-05T08:58:20.312Z,0.20
2023-01-05T09:00:48.357Z,0.20
2023-01-05T09:03:16.593Z,0.38
2023-01-05T09:05:44.853Z,0.20
2023-01-05T09:08:13.066Z,0.20
2023-01-05T09:10:41.154Z,0.20
2023-01-05T09:13:10.001Z,0.20
2023-01-05T09:15:39.530Z,0.10
2023-01-05T09:18:07.717Z,0.20
2023-01-05T09:20:39.815Z,0.40
2023-01-05T09:23:08.448Z,0.20
2023-01-05T09:25:36.576Z,0.10
2023-01-05T09:28:04.724Z,0.32
2023-01-05T09:30:40.197Z,0.20
2023-01-05T09:33:12.739Z,0.13
2023-01-05T09:35:41.045Z,0.13
2023-01-05T09:38:09.423Z,0.20
2023-01-05T09:40:42.796Z,0.20
2023-01-05T09:43:20.927Z,0.10
2023-01-05T09:45:51.123Z,0.13
2023-01-05T09:48:21.913Z,0.20
2023-01-05T09:50:52.412Z,0.40
2023-01-05T09:53:26.733Z,0.47
2023-01-05T09:55:55.351Z,0.60
2023-01-05T09:58:29.978Z,0.43
2023-01-05T10:01:09.041Z,0.30
2023-01-05T10:06:34.470Z,0.55
2023-01-05T10:09:05.231Z,0.40
2023-01-05T10:11:57.973Z,0.38
2023-01-05T10:14:31.527Z,0.43
2023-01-05T10:17:38.685Z,0.43
2023-01-05T10:19:50.381Z,0.30
2023-01-05T10:22:38.817Z,0.32
2023-01-05T10:25:17.177Z,0.30
2023-01-05T10:27:56.670Z,0.47
2023-01-05T10:30:26.863Z,1.10
2023-01-05T10:33:25.534Z,0.65
2023-01-05T10:36:03.246Z,0.60
2023-01-05T10:41:14.677Z,0.45
2023-01-05T10:44:08.960Z,0.50
2023-01-05T10:46:47.170Z,0.70
2023-01-05T10:49:21.686Z,1.65
2023-01-05T10:51:56.517Z,1.20
2023-01-05T10:54:36.689Z,1.13
2023-01-05T10:57:36.002Z,1.25
2023-01-05T11:00:09.212Z,0.98
2023-01-05T11:02:40.215Z,1.05
2023-01-05T11:05:31.649Z,1.20
2023-01-05T11:08:06.621Z,0.95
2023-01-05T11:10:36.977Z,0.47
2023-01-05T11:13:08.444Z,1.27
2023-01-05T11:15:43.399Z,0.90
2023-01-05T11:18:28.283Z,0.85
2023-01-05T11:21:15.731Z,0.73
2023-01-05T11:23:46.889Z,0.60
2023-01-05T11:26:31.220Z,0.73
2023-01-05T11:29:17.263Z,0.88
2023-01-05T11:31:51.399Z,0.30
2023-01-05T11:34:42.500Z,0.40
2023-01-05T11:37:24.261Z,0.60
2023-01-05T11:39:55.695Z,0.40
2023-01-05T11:42:31.863Z,0.40
2023-01-05T11:45:03.389Z,0.50
2023-01-05T11:47:41.436Z,0.38
2023-01-05T11:50:21.684Z,0.20
2023-01-05T11:52:51.885Z,0.57
2023-01-05T11:55:36.768Z,0.20
2023-01-05T11:58:17.934Z,0.30
2023-01-05T12:01:20.300Z,0.40
2023-01-05T12:04:04.742Z,0.33
2023-01-05T12:07:04.501Z,0.35
2023-01-05T12:09:36.010Z,0.30
2023-01-05T12:12:30.369Z,0.30
2023-01-05T12:15:30.890Z,0.43
2023-01-05T12:18:11.355Z,0.20
2023-01-05T12:20:56.748Z,0.50
2023-01-05T12:23:54.747Z,0.50
2023-01-05T12:26:27.938Z,0.50
2023-01-05T12:35:40.349Z,0.50
2023-01-05T12:38:24.905Z,1.33
2023-01-05T12:41:09.043Z,0.40
2023-01-05T12:43:49.821Z,0.80
2023-01-05T12:46:35.834Z,0.65
2023-01-05T12:49:09.246Z,0.90
2023-01-05T12:51:42.119Z,0.60
2023-01-05T12:54:22.553Z,0.68
2023-01-05T12:56:55.839Z,0.60
2023-01-05T12:59:30.588Z,0.40
2023-01-05T13:02:06.290Z,0.52
2023-01-05T13:04:46.974Z,0.73
2023-01-05T13:07:22.786Z,0.57
2023-01-05T13:10:02.517Z,0.55
2023-01-05T13:12:32.647Z,0.50
2023-01-05T13:15:15.137Z,0.38
2023-01-05T13:17:49.433Z,0.60
2023-01-05T13:20:36.949Z,2.22
2023-01-05T13:23:08.885Z,0.90
2023-01-05T13:25:46.083Z,0.45
2023-01-05T13:28:20.284Z,0.60
2023-01-05T13:30:59.840Z,0.60
2023-01-05T13:34:05.530Z,0.52
2023-01-05T13:36:48.168Z,0.43
2023-01-05T13:39:44.033Z,0.50
2023-01-05T13:42:50.297Z,0.57
2023-01-05T13:45:47.242Z,0.73
2023-01-05T13:48:44.029Z,0.70
2023-01-05T13:51:46.958Z,0.55
2023-01-05T13:54:20.255Z,0.28
2023-01-05T13:56:50.427Z,0.50
2023-01-05T13:59:35.390Z,1.00
2023-01-05T14:02:27.875Z,0.45
2023-01-05T14:04:56.440Z,0.40
2023-01-05T14:07:26.361Z,0.50
2023-01-05T14:09:57.221Z,0.40
2023-01-05T14:12:56.459Z,0.38
2023-01-05T14:15:34.182Z,0.88
2023-01-05T14:18:03.269Z,0.28
2023-01-05T14:20:34.571Z,0.50
2023-01-05T14:23:26.282Z,0.60
2023-01-05T14:25:56.014Z,0.70
2023-01-05T14:28:55.463Z,0.50
2023-01-05T14:31:50.671Z,0.30
2023-01-05T14:34:21.499Z,0.40
2023-01-05T14:37:07.591Z,0.30
2023-01-05T14:39:45.076Z,0.65
2023-01-05T14:42:26.902Z,0.50
2023-01-05T14:45:01.436Z,0.60
2023-01-05T14:47:40.781Z,0.40
2023-01-05T14:50:28.093Z,0.50
2023-01-05T14:52:59.001Z,0.73
2023-01-05T14:55:38.849Z,0.50
2023-01-05T14:58:13.504Z,0.50
2023-01-05T15:00:51.266Z,0.47
2023-01-05T15:03:25.714Z,0.32
2023-01-05T15:06:00.666Z,0.70
2023-01-05T15:08:54.888Z,0.70
2023-01-05T15:11:58.967Z,0.65
2023-01-05T15:14:52.180Z,0.60
2023-01-05T15:17:58.985Z,0.60
2023-01-05T15:20:46.204Z,0.63
2023-01-05T15:23:31.147Z,0.47
2023-01-05T15:26:11.939Z,0.50
2023-01-05T15:29:28.266Z,0.60
2023-01-05T15:32:00.077Z,0.77
2023-01-05T15:34:34.923Z,0.73
2023-01-05T15:37:09.591Z,0.85
2023-01-05T15:39:46.055Z,1.27
2023-01-05T15:42:18.514Z,0.77
2023-01-05T15:44:48.984Z,0.80
2023-01-05T15:47:19.775Z,1.15
2023-01-05T15:49:48.425Z,0.68
2023-01-05T15:52:22.454Z,1.98
2023-01-05T15:55:02.570Z,1.70
2023-01-05T15:57:30.661Z,2.08
2023-01-05T16:00:17.185Z,8.80
2023-01-05T16:02:45.465Z,2.80
2023-01-05T16:05:19.888Z,2.58
2023-01-05T16:07:55.420Z,3.55
2023-01-05T16:10:28.447Z,4.68
2023-01-05T16:13:00.912Z,4.95
2023-01-05T16:15:34.179Z,2.63
2023-01-05T16:18:03.360Z,2.95
2023-01-05T16:20:32.545Z,2.72
2023-01-05T16:23:08.957Z,2.38
2023-01-05T16:25:41.356Z,2.05
2023-01-05T16:28:17.342Z,1.83
2023-01-05T16:30:48.040Z,2.67
2023-01-05T16:33:34.899Z,1.90
2023-01-05T16:36:13.266Z,1.00
2023-01-05T16:38:41.871Z,3.05
2023-01-05T16:41:15.412Z,2.67
2023-01-05T16:43:52.619Z,2.45
2023-01-05T16:46:40.429Z,1.60
2023-01-05T16:49:32.861Z,0.95
2023-01-05T16:52:01.965Z,2.95
2023-01-05T16:54:37.062Z,2.60
2023-01-05T16:57:29.028Z,2.83
2023-01-05T16:59:57.345Z,0.85
2023-01-05T17:02:46.601Z,2.30
2023-01-05T17:05:17.011Z,1.48
2023-01-05T17:07:47.293Z,1.70
2023-01-05T17:10:19.735Z,2.13
2023-01-05T17:12:56.777Z,1.33
2023-01-05T17:15:29.512Z,2.25
2023-01-05T17:17:59.213Z,1.73
2023-01-05T17:20:31.541Z,1.50
2023-01-05T17:22:59.827Z,1.48
2023-01-05T17:25:33.647Z,2.13
2023-01-05T17:28:02.476Z,1.90
2023-01-05T17:30:30.749Z,1.65
2023-01-05T17:33:00.230Z,2.50
2023-01-05T17:35:28.339Z,2.35
2023-01-05T17:37:56.367Z,2.47
2023-01-05T17:40:25.184Z,2.35
2023-01-05T17:42:53.328Z,1.40
2023-01-05T17:45:23.260Z,1.77
2023-01-05T17:47:52.220Z,1.40
2023-01-05T17:50:24.155Z,1.60
2023-01-05T17:52:52.236Z,1.50
2023-01-05T17:55:20.530Z,1.60
2023-01-05T17:57:49.307Z,1.55
2023-01-05T18:00:22.975Z,1.13
2023-01-05T18:02:51.599Z,1.45
2023-01-05T18:05:22.355Z,1.55
2023-01-05T18:07:50.675Z,1.45
2023-01-05T18:10:26.975Z,1.20
2023-01-05T18:12:56.988Z,1.17
2023-01-05T18:17:57.897Z,1.40
2023-01-05T18:20:31.381Z,1.60
2023-01-05T18:22:59.962Z,1.48
2023-01-05T18:25:28.110Z,2.92
2023-01-05T18:27:56.216Z,2.50
2023-01-05T18:30:24.206Z,1.30
2023-01-05T18:32:52.282Z,1.15
2023-01-05T18:35:20.579Z,1.65
2023-01-05T18:37:50.205Z,1.23
2023-01-05T18:40:18.364Z,1.30
2023-01-05T18:42:48.414Z,1.27
2023-01-05T18:45:19.367Z,1.58
2023-01-05T18:48:01.283Z,1.55
2023-01-05T18:50:29.397Z,1.58
2023-01-05T18:52:58.820Z,1.15
2023-01-05T18:55:28.324Z,1.50
2023-01-05T18:58:00.637Z,1.25
2023-01-05T19:00:28.611Z,1.45
2023-01-05T19:02:56.691Z,1.50
2023-01-05T19:05:24.841Z,1.50
2023-01-05T19:07:57.524Z,1.33
2023-01-05T19:10:27.351Z,2.50
2023-01-05T19:12:55.718Z,1.33
2023-01-05T19:15:26.135Z,1.40
2023-01-05T19:17:54.387Z,1.23
2023-01-05T19:20:23.696Z,1.40
2023-01-05T19:22:51.851Z,1.25
2023-01-05T19:25:20.089Z,1.20
2023-01-05T19:27:49.511Z,1.45
2023-01-05T19:30:20.009Z,1.00
2023-01-05T19:32:48.323Z,1.73
2023-01-05T19:35:16.464Z,1.60
2023-01-05T19:37:47.019Z,1.40
2023-01-05T19:40:15.098Z,1.52
2023-01-05T19:42:43.195Z,1.90
2023-01-05T19:45:15.949Z,1.90
2023-01-05T19:50:13.418Z,1.73
2023-01-05T19:52:42.011Z,1.63
2023-01-05T19:55:17.979Z,1.92
2023-01-05T19:57:46.374Z,1.60
2023-01-05T20:00:17.322Z,1.58
2023-01-05T20:02:45.397Z,1.92
2023-01-05T20:05:14.178Z,1.60
2023-01-05T20:07:43.511Z,1.20
2023-01-05T20:10:11.577Z,1.58
2023-01-05T20:12:39.555Z,1.85
2023-01-05T20:15:08.373Z,1.52
2023-01-05T20:17:37.856Z,1.50
2023-01-05T20:20:06.360Z,1.67
2023-01-05T20:22:34.367Z,1.60
2023-01-05T20:25:02.294Z,1.55
2023-01-05T20:27:29.744Z,2.00
2023-01-05T20:29:57.827Z,1.58
2023-01-05T20:32:27.538Z,1.67
2023-01-05T20:35:00.360Z,1.63
2023-01-05T20:37:29.578Z,1.85
2023-01-05T20:39:58.073Z,1.40
2023-01-05T20:42:26.081Z,1.30
2023-01-05T20:44:54.203Z,1.38
2023-01-05T20:47:22.189Z,1.58
2023-01-05T20:49:50.185Z,1.60
2023-01-05T20:52:21.003Z,1.42
2023-01-05T20:54:49.639Z,1.50
2023-01-05T20:57:17.623Z,1.75
2023-01-05T20:59:46.534Z,1.38
2023-01-05T21:02:23.467Z,1.77
2023-01-05T21:04:52.668Z,2.08
2023-01-05T21:07:23.168Z,1.63
2023-01-05T21:09:52.191Z,1.80
2023-01-05T21:12:20.372Z,2.17
2023-01-05T21:14:48.384Z,1.90
2023-01-05T21:17:16.619Z,1.90
2023-01-05T21:19:44.756Z,1.80
2023-01-05T21:22:12.628Z,1.70
2023-01-05T21:24:42.149Z,1.52
2023-01-05T21:27:10.240Z,1.77
2023-01-05T21:29:38.176Z,1.95
2023-01-05T21:32:06.424Z,1.77
2023-01-05T21:34:34.331Z,2.13
2023-01-05T21:37:02.308Z,1.90
2023-01-05T21:39:30.296Z,1.50
2023-01-05T21:42:22.558Z,1.65
2023-01-05T21:44:50.638Z,1.60
2023-01-05T21:47:18.686Z,2.05
2023-01-05T21:49:46.686Z,1.33
2023-01-05T21:52:31.924Z,1.70
2023-01-05T21:55:17.543Z,1.40
2023-01-05T21:57:46.896Z,1.70
2023-01-05T22:00:16.587Z,1.17
2023-01-05T22:02:44.627Z,1.27
2023-01-05T22:05:12.655Z,1.92
2023-01-05T22:07:40.580Z,1.55
2023-01-05T22:10:09.356Z,1.92
2023-01-05T22:12:37.289Z,2.08
2023-01-05T22:15:07.797Z,1.65
2023-01-05T22:17:35.800Z,1.65
2023-01-05T22:20:03.800Z,1.90
2023-01-05T22:22:31.790Z,1.23
2023-01-05T22:24:59.697Z,1.70
2023-01-05T22:27:27.697Z,1.33
2023-01-05T22:29:55.648Z,1.63
2023-01-05T22:32:24.993Z,1.67
2023-01-05T22:34:52.936Z,1.55
2023-01-05T22:37:20.903Z,1.70
2023-01-05T22:39:48.876Z,1.13
2023-01-05T22:42:17.076Z,1.45
2023-01-05T22:44:45.190Z,1.33
2023-01-05T22:47:13.186Z,1.30
2023-01-05T22:49:42.553Z,1.33
2023-01-05T22:52:10.679Z,1.30
2023-01-05T22:54:40.367Z,1.23
2023-01-05T22:57:08.412Z,1.35
2023-01-05T22:59:36.426Z,1.77
2023-01-05T23:02:04.499Z,1.30
2023-01-05T23:04:32.651Z,1.38
2023-01-05T23:07:02.121Z,1.50
2023-01-05T23:09:30.072Z,1.25
2023-01-05T23:11:58.365Z,1.35
2023-01-05T23:14:26.354Z,1.40
2023-01-05T23:16:54.348Z,1.15
2023-01-05T23:19:22.595Z,1.42
2023-01-05T23:21:50.518Z,1.42
2023-01-05T23:24:19.878Z,1.08
2023-01-05T23:26:47.755Z,0.82
2023-01-05T23:29:15.670Z,0.80
2023-01-05T23:31:43.693Z,1.13
2023-01-05T23:34:11.669Z,0.80
2023-01-05T23:36:39.779Z,1.10
2023-01-05T23:39:08.126Z,1.33
2023-01-05T23:41:37.393Z,1.05
2023-01-05T23:44:07.809Z,1.40
2023-01-05T23:46:35.991Z,1.10
2023-01-05T23:49:04.059Z,0.82
2023-01-05T23:51:32.087Z,0.63
2023-01-05T23:54:00.355Z,0.77
2023-01-05T23:56:30.903Z,0.70
2023-01-05T23:59:04.439Z,0.73
